sensor_id;sensor_type;location;lat;lon;timestamp;temperature;humidity
1468;DHT22;727;48.892;9.544;2023-06-26T00:01:30;16.80;90.00
1468;DHT22;727;48.892;9.544;2023-06-26T00:03:58;16.80;89.70
1468;DHT22;727;48.892;9.544;2023-06-26T00:06:25;16.80;90.20
1468;DHT22;727;48.892;9.544;2023-06-26T00:08:54;16.80;90.50
1468;DHT22;727;48.892;9.544;2023-06-26T00:11:21;16.70;90.80
1468;DHT22;727;48.892;9.544;2023-06-26T00:13:48;16.70;90.90
1468;DHT22;727;48.892;9.544;2023-06-26T00:16:15;16.70;90.90
1468;DHT22;727;48.892;9.544;2023-06-26T00:18:42;16.80;91.10
1468;DHT22;727;48.892;9.544;2023-06-26T00:21:09;16.80;91.30
1468;DHT22;727;48.892;9.544;2023-06-26T00:23:35;16.70;91.40
1468;DHT22;727;48.892;9.544;2023-06-26T00:26:04;16.80;91.70
1468;DHT22;727;48.892;9.544;2023-06-26T00:28:31;16.70;91.80
1468;DHT22;727;48.892;9.544;2023-06-26T00:30:58;16.70;91.90
1468;DHT22;727;48.892;9.544;2023-06-26T00:33:24;16.70;92.00
1468;DHT22;727;48.892;9.544;2023-06-26T00:35:51;16.70;92.20
1468;DHT22;727;48.892;9.544;2023-06-26T00:38:18;16.70;92.40
1468;DHT22;727;48.892;9.544;2023-06-26T00:40:45;16.70;92.50
1468;DHT22;727;48.892;9.544;2023-06-26T00:43:13;16.60;92.80
1468;DHT22;727;48.892;9.544;2023-06-26T00:45:40;16.60;92.60
1468;DHT22;727;48.892;9.544;2023-06-26T00:48:06;16.60;92.80
1468;DHT22;727;48.892;9.544;2023-06-26T00:50:33;16.50;92.90
1468;DHT22;727;48.892;9.544;2023-06-26T00:53:00;16.40;93.00
1468;DHT22;727;48.892;9.544;2023-06-26T00:55:27;16.30;93.10
1468;DHT22;727;48.892;9.544;2023-06-26T00:57:54;16.30;93.40
1468;DHT22;727;48.892;9.544;2023-06-26T01:00:23;16.20;93.60
1468;DHT22;727;48.892;9.544;2023-06-26T01:02:50;16.20;93.90
1468;DHT22;727;48.892;9.544;2023-06-26T01:05:17;16.10;94.20
1468;DHT22;727;48.892;9.544;2023-06-26T01:07:47;16.10;94.40
1468;DHT22;727;48.892;9.544;2023-06-26T01:10:14;16.10;94.70
1468;DHT22;727;48.892;9.544;2023-06-26T01:12:41;16.10;95.00
1468;DHT22;727;48.892;9.544;2023-06-26T01:15:09;16.10;95.20
1468;DHT22;727;48.892;9.544;2023-06-26T01:17:38;16.10;95.50
1468;DHT22;727;48.892;9.544;2023-06-26T01:20:06;16.10;95.70
1468;DHT22;727;48.892;9.544;2023-06-26T01:22:39;16.10;95.80
1468;DHT22;727;48.892;9.544;2023-06-26T01:25:15;16.10;95.90
1468;DHT22;727;48.892;9.544;2023-06-26T01:27:48;16.00;96.20
1468;DHT22;727;48.892;9.544;2023-06-26T01:30:16;16.10;96.50
1468;DHT22;727;48.892;9.544;2023-06-26T01:32:43;16.10;96.50
1468;DHT22;727;48.892;9.544;2023-06-26T01:35:11;16.10;96.50
1468;DHT22;727;48.892;9.544;2023-06-26T01:37:38;16.10;96.60
1468;DHT22;727;48.892;9.544;2023-06-26T01:40:06;16.00;96.80
1468;DHT22;727;48.892;9.544;2023-06-26T01:42:33;16.00;96.90
1468;DHT22;727;48.892;9.544;2023-06-26T01:45:07;16.00;97.10
1468;DHT22;727;48.892;9.544;2023-06-26T01:47:38;15.90;97.30
1468;DHT22;727;48.892;9.544;2023-06-26T01:50:12;15.80;97.50
1468;DHT22;727;48.892;9.544;2023-06-26T01:52:43;15.80;97.70
1468;DHT22;727;48.892;9.544;2023-06-26T01:55:16;15.80;98.00
1468;DHT22;727;48.892;9.544;2023-06-26T01:57:45;15.70;98.20
1468;DHT22;727;48.892;9.544;2023-06-26T02:00:16;15.70;98.40
1468;DHT22;727;48.892;9.544;2023-06-26T02:02:44;15.70;98.50
1468;DHT22;727;48.892;9.544;2023-06-26T02:05:11;15.70;98.70
1468;DHT22;727;48.892;9.544;2023-06-26T02:07:38;15.70;99.30
1468;DHT22;727;48.892;9.544;2023-06-26T02:10:06;15.60;99.10
1468;DHT22;727;48.892;9.544;2023-06-26T02:12:34;15.60;99.60
1468;DHT22;727;48.892;9.544;2023-06-26T02:15:01;15.60;99.40
1468;DHT22;727;48.892;9.544;2023-06-26T02:17:29;15.60;99.50
1468;DHT22;727;48.892;9.544;2023-06-26T02:19:56;15.50;99.50
1468;DHT22;727;48.892;9.544;2023-06-26T02:22:23;15.50;99.60
1468;DHT22;727;48.892;9.544;2023-06-26T02:24:50;15.50;99.70
1468;DHT22;727;48.892;9.544;2023-06-26T02:27:17;15.50;99.80
1468;DHT22;727;48.892;9.544;2023-06-26T02:29:43;15.50;99.80
1468;DHT22;727;48.892;9.544;2023-06-26T02:32:10;15.50;99.90
1468;DHT22;727;48.892;9.544;2023-06-26T02:34:38;15.40;99.90
1468;DHT22;727;48.892;9.544;2023-06-26T02:37:05;15.40;99.90
1468;DHT22;727;48.892;9.544;2023-06-26T02:39:32;15.40;99.90
1468;DHT22;727;48.892;9.544;2023-06-26T02:41:59;15.30;99.90
1468;DHT22;727;48.892;9.544;2023-06-26T02:44:26;15.30;99.90
1468;DHT22;727;48.892;9.544;2023-06-26T02:46:53;15.30;99.90
1468;DHT22;727;48.892;9.544;2023-06-26T02:49:20;15.20;99.90
1468;DHT22;727;48.892;9.544;2023-06-26T02:51:48;15.20;99.90
1468;DHT22;727;48.892;9.544;2023-06-26T02:54:15;15.20;99.90
1468;DHT22;727;48.892;9.544;2023-06-26T02:56:41;15.20;99.90
1468;DHT22;727;48.892;9.544;2023-06-26T02:59:08;15.20;99.90
1468;DHT22;727;48.892;9.544;2023-06-26T03:01:35;15.20;99.90
1468;DHT22;727;48.892;9.544;2023-06-26T03:04:02;15.10;99.90
1468;DHT22;727;48.892;9.544;2023-06-26T03:06:29;15.10;99.90
1468;DHT22;727;48.892;9.544;2023-06-26T03:08:57;15.10;99.90
1468;DHT22;727;48.892;9.544;2023-06-26T03:11:24;15.10;99.90
1468;DHT22;727;48.892;9.544;2023-06-26T03:13:51;15.10;99.90
1468;DHT22;727;48.892;9.544;2023-06-26T03:16:18;15.10;99.90
1468;DHT22;727;48.892;9.544;2023-06-26T03:18:45;15.10;99.90
1468;DHT22;727;48.892;9.544;2023-06-26T03:21:11;15.10;99.90
1468;DHT22;727;48.892;9.544;2023-06-26T03:23:38;15.10;99.90
1468;DHT22;727;48.892;9.544;2023-06-26T03:26:06;15.10;99.90
1468;DHT22;727;48.892;9.544;2023-06-26T03:28:33;15.20;99.90
1468;DHT22;727;48.892;9.544;2023-06-26T03:31:00;15.20;99.90
1468;DHT22;727;48.892;9.544;2023-06-26T03:33:26;15.20;99.90
1468;DHT22;727;48.892;9.544;2023-06-26T03:35:53;15.20;99.90
1468;DHT22;727;48.892;9.544;2023-06-26T03:38:22;15.20;99.90
1468;DHT22;727;48.892;9.544;2023-06-26T03:40:49;15.20;99.90
1468;DHT22;727;48.892;9.544;2023-06-26T03:43:17;15.20;99.90
1468;DHT22;727;48.892;9.544;2023-06-26T03:45:44;15.20;99.90
1468;DHT22;727;48.892;9.544;2023-06-26T03:48:11;15.20;99.90
1468;DHT22;727;48.892;9.544;2023-06-26T03:50:39;15.30;99.90
1468;DHT22;727;48.892;9.544;2023-06-26T03:53:06;15.20;99.90
1468;DHT22;727;48.892;9.544;2023-06-26T03:55:32;15.20;99.90
1468;DHT22;727;48.892;9.544;2023-06-26T03:58:00;15.30;99.90
1468;DHT22;727;48.892;9.544;2023-06-26T04:00:28;15.30;99.90
1468;DHT22;727;48.892;9.544;2023-06-26T04:02:55;15.30;99.90
1468;DHT22;727;48.892;9.544;2023-06-26T04:05:22;15.20;99.90
1468;DHT22;727;48.892;9.544;2023-06-26T04:07:50;15.30;99.90
1468;DHT22;727;48.892;9.544;2023-06-26T04:10:17;15.30;99.90
1468;DHT22;727;48.892;9.544;2023-06-26T04:12:43;15.40;99.90
1468;DHT22;727;48.892;9.544;2023-06-26T04:15:10;15.40;99.90
1468;DHT22;727;48.892;9.544;2023-06-26T04:17:38;15.40;99.90
1468;DHT22;727;48.892;9.544;2023-06-26T04:20:06;15.40;99.90
1468;DHT22;727;48.892;9.544;2023-06-26T04:22:34;15.60;99.90
1468;DHT22;727;48.892;9.544;2023-06-26T04:25:03;15.70;99.90
1468;DHT22;727;48.892;9.544;2023-06-26T04:27:30;15.90;99.90
1468;DHT22;727;48.892;9.544;2023-06-26T04:29:56;16.00;99.90
1468;DHT22;727;48.892;9.544;2023-06-26T04:32:23;16.20;99.90
1468;DHT22;727;48.892;9.544;2023-06-26T04:34:52;16.40;99.90
1468;DHT22;727;48.892;9.544;2023-06-26T04:37:19;16.60;99.90
1468;DHT22;727;48.892;9.544;2023-06-26T04:39:45;16.80;99.90
1468;DHT22;727;48.892;9.544;2023-06-26T04:42:12;17.00;99.30
1468;DHT22;727;48.892;9.544;2023-06-26T04:44:39;17.20;98.70
1468;DHT22;727;48.892;9.544;2023-06-26T04:47:07;18.20;97.80
1468;DHT22;727;48.892;9.544;2023-06-26T04:49:34;19.40;95.30
1468;DHT22;727;48.892;9.544;2023-06-26T04:52:02;20.70;93.00
1468;DHT22;727;48.892;9.544;2023-06-26T04:54:29;22.10;89.00
1468;DHT22;727;48.892;9.544;2023-06-26T04:56:56;23.20;84.30
1468;DHT22;727;48.892;9.544;2023-06-26T04:59:23;24.20;77.40
1468;DHT22;727;48.892;9.544;2023-06-26T05:01:50;24.60;74.50
1468;DHT22;727;48.892;9.544;2023-06-26T05:04:16;24.80;72.10
1468;DHT22;727;48.892;9.544;2023-06-26T05:06:43;25.10;69.90
1468;DHT22;727;48.892;9.544;2023-06-26T05:09:11;25.20;69.70
1468;DHT22;727;48.892;9.544;2023-06-26T05:11:39;25.40;68.50
1468;DHT22;727;48.892;9.544;2023-06-26T05:14:06;25.70;67.90
1468;DHT22;727;48.892;9.544;2023-06-26T05:16:34;26.20;66.80
1468;DHT22;727;48.892;9.544;2023-06-26T05:19:01;26.80;64.40
1468;DHT22;727;48.892;9.544;2023-06-26T05:21:29;27.20;61.90
1468;DHT22;727;48.892;9.544;2023-06-26T05:23:57;27.10;61.80
1468;DHT22;727;48.892;9.544;2023-06-26T05:26:26;27.20;61.80
1468;DHT22;727;48.892;9.544;2023-06-26T05:28:54;27.90;60.80
1468;DHT22;727;48.892;9.544;2023-06-26T05:31:21;28.00;59.90
1468;DHT22;727;48.892;9.544;2023-06-26T05:33:48;28.50;59.00
1468;DHT22;727;48.892;9.544;2023-06-26T05:36:16;28.70;58.00
1468;DHT22;727;48.892;9.544;2023-06-26T05:38:45;29.10;57.50
1468;DHT22;727;48.892;9.544;2023-06-26T05:41:12;29.10;57.10
1468;DHT22;727;48.892;9.544;2023-06-26T05:43:41;29.00;57.00
1468;DHT22;727;48.892;9.544;2023-06-26T05:46:08;28.90;57.30
1468;DHT22;727;48.892;9.544;2023-06-26T05:48:34;28.90;57.50
1468;DHT22;727;48.892;9.544;2023-06-26T05:51:02;29.20;57.10
1468;DHT22;727;48.892;9.544;2023-06-26T05:53:30;29.50;56.90
1468;DHT22;727;48.892;9.544;2023-06-26T05:55:57;30.20;55.60
1468;DHT22;727;48.892;9.544;2023-06-26T05:58:26;29.70;55.80
1468;DHT22;727;48.892;9.544;2023-06-26T06:00:55;29.60;56.00
1468;DHT22;727;48.892;9.544;2023-06-26T06:03:23;29.30;56.70
1468;DHT22;727;48.892;9.544;2023-06-26T06:05:50;29.60;56.50
1468;DHT22;727;48.892;9.544;2023-06-26T06:08:16;29.40;56.70
1468;DHT22;727;48.892;9.544;2023-06-26T06:10:43;28.90;57.80
1468;DHT22;727;48.892;9.544;2023-06-26T06:13:10;28.60;58.50
1468;DHT22;727;48.892;9.544;2023-06-26T06:15:37;28.30;59.20
1468;DHT22;727;48.892;9.544;2023-06-26T06:18:05;27.90;60.20
1468;DHT22;727;48.892;9.544;2023-06-26T06:20:32;27.70;61.00
1468;DHT22;727;48.892;9.544;2023-06-26T06:23:00;27.30;62.20
1468;DHT22;727;48.892;9.544;2023-06-26T06:25:27;27.30;63.20
1468;DHT22;727;48.892;9.544;2023-06-26T06:27:54;27.00;64.20
1468;DHT22;727;48.892;9.544;2023-06-26T06:30:21;26.90;64.10
1468;DHT22;727;48.892;9.544;2023-06-26T06:32:48;26.90;64.30
1468;DHT22;727;48.892;9.544;2023-06-26T06:35:18;26.90;64.40
1468;DHT22;727;48.892;9.544;2023-06-26T06:37:45;27.10;62.70
1468;DHT22;727;48.892;9.544;2023-06-26T06:40:12;27.10;60.90
1468;DHT22;727;48.892;9.544;2023-06-26T06:42:39;27.00;60.90
1468;DHT22;727;48.892;9.544;2023-06-26T06:45:07;27.20;60.80
1468;DHT22;727;48.892;9.544;2023-06-26T06:47:34;27.30;60.60
1468;DHT22;727;48.892;9.544;2023-06-26T06:50:02;27.70;59.50
1468;DHT22;727;48.892;9.544;2023-06-26T06:52:36;27.90;58.40
1468;DHT22;727;48.892;9.544;2023-06-26T06:55:04;27.90;58.70
1468;DHT22;727;48.892;9.544;2023-06-26T06:57:34;27.90;58.70
1468;DHT22;727;48.892;9.544;2023-06-26T07:00:03;28.20;57.60
1468;DHT22;727;48.892;9.544;2023-06-26T07:02:30;28.00;57.80
1468;DHT22;727;48.892;9.544;2023-06-26T07:04:57;28.20;57.50
1468;DHT22;727;48.892;9.544;2023-06-26T07:07:29;28.40;57.60
1468;DHT22;727;48.892;9.544;2023-06-26T07:09:58;28.70;57.20
1468;DHT22;727;48.892;9.544;2023-06-26T07:12:25;28.90;56.50
1468;DHT22;727;48.892;9.544;2023-06-26T07:14:51;28.90;56.10
1468;DHT22;727;48.892;9.544;2023-06-26T07:17:19;28.70;55.90
1468;DHT22;727;48.892;9.544;2023-06-26T07:19:46;28.80;56.50
1468;DHT22;727;48.892;9.544;2023-06-26T07:22:13;29.00;56.00
1468;DHT22;727;48.892;9.544;2023-06-26T07:24:40;28.90;55.10
1468;DHT22;727;48.892;9.544;2023-06-26T07:27:08;29.00;55.60
1468;DHT22;727;48.892;9.544;2023-06-26T07:29:35;29.10;56.20
1468;DHT22;727;48.892;9.544;2023-06-26T07:32:02;29.30;55.10
1468;DHT22;727;48.892;9.544;2023-06-26T07:34:29;29.20;54.60
1468;DHT22;727;48.892;9.544;2023-06-26T07:36:55;29.40;54.70
1468;DHT22;727;48.892;9.544;2023-06-26T07:39:22;29.50;54.30
1468;DHT22;727;48.892;9.544;2023-06-26T07:41:50;29.80;54.60
1468;DHT22;727;48.892;9.544;2023-06-26T07:44:18;29.90;54.00
1468;DHT22;727;48.892;9.544;2023-06-26T07:46:45;29.60;54.00
1468;DHT22;727;48.892;9.544;2023-06-26T07:49:12;29.60;54.90
1468;DHT22;727;48.892;9.544;2023-06-26T07:51:39;29.90;54.30
1468;DHT22;727;48.892;9.544;2023-06-26T07:54:06;30.30;53.90
1468;DHT22;727;48.892;9.544;2023-06-26T07:56:36;30.50;53.30
1468;DHT22;727;48.892;9.544;2023-06-26T07:59:19;30.60;53.30
1468;DHT22;727;48.892;9.544;2023-06-26T08:01:47;30.50;53.40
1468;DHT22;727;48.892;9.544;2023-06-26T08:04:14;30.60;53.50
1468;DHT22;727;48.892;9.544;2023-06-26T08:06:41;31.00;52.80
1468;DHT22;727;48.892;9.544;2023-06-26T08:09:08;31.20;52.40
1468;DHT22;727;48.892;9.544;2023-06-26T08:11:35;31.40;52.50
1468;DHT22;727;48.892;9.544;2023-06-26T08:14:02;31.70;52.10
1468;DHT22;727;48.892;9.544;2023-06-26T08:16:30;31.70;51.50
1468;DHT22;727;48.892;9.544;2023-06-26T08:18:57;31.90;50.90
1468;DHT22;727;48.892;9.544;2023-06-26T08:21:23;32.10;50.40
1468;DHT22;727;48.892;9.544;2023-06-26T08:23:50;32.00;50.60
1468;DHT22;727;48.892;9.544;2023-06-26T08:26:17;32.30;50.20
1468;DHT22;727;48.892;9.544;2023-06-26T08:28:44;32.30;49.50
1468;DHT22;727;48.892;9.544;2023-06-26T08:31:10;32.50;49.60
1468;DHT22;727;48.892;9.544;2023-06-26T08:33:40;32.50;48.10
1468;DHT22;727;48.892;9.544;2023-06-26T08:36:07;32.80;47.90
1468;DHT22;727;48.892;9.544;2023-06-26T08:38:34;32.80;47.00
1468;DHT22;727;48.892;9.544;2023-06-26T08:41:02;32.70;46.60
1468;DHT22;727;48.892;9.544;2023-06-26T08:43:28;32.60;47.10
1468;DHT22;727;48.892;9.544;2023-06-26T08:45:55;32.70;47.60
1468;DHT22;727;48.892;9.544;2023-06-26T08:48:22;32.60;47.50
1468;DHT22;727;48.892;9.544;2023-06-26T08:50:53;32.80;47.30
1468;DHT22;727;48.892;9.544;2023-06-26T08:53:29;32.90;46.80
1468;DHT22;727;48.892;9.544;2023-06-26T08:56:00;33.00;47.00
1468;DHT22;727;48.892;9.544;2023-06-26T08:58:27;32.90;47.00
1468;DHT22;727;48.892;9.544;2023-06-26T09:00:54;32.80;47.00
1468;DHT22;727;48.892;9.544;2023-06-26T09:03:22;32.50;47.10
1468;DHT22;727;48.892;9.544;2023-06-26T09:05:52;32.40;47.80
1468;DHT22;727;48.892;9.544;2023-06-26T09:08:19;32.40;47.90
1468;DHT22;727;48.892;9.544;2023-06-26T09:10:45;32.50;48.10
1468;DHT22;727;48.892;9.544;2023-06-26T09:13:12;32.80;48.10
1468;DHT22;727;48.892;9.544;2023-06-26T09:15:42;32.70;47.70
1468;DHT22;727;48.892;9.544;2023-06-26T09:18:09;32.30;48.10
1468;DHT22;727;48.892;9.544;2023-06-26T09:20:36;32.30;49.00
1468;DHT22;727;48.892;9.544;2023-06-26T09:23:05;32.70;48.40
1468;DHT22;727;48.892;9.544;2023-06-26T09:25:31;32.80;48.00
1468;DHT22;727;48.892;9.544;2023-06-26T09:27:59;33.40;47.40
1468;DHT22;727;48.892;9.544;2023-06-26T09:30:26;33.80;46.50
1468;DHT22;727;48.892;9.544;2023-06-26T09:32:53;33.80;46.10
1468;DHT22;727;48.892;9.544;2023-06-26T09:35:20;33.50;46.60
1468;DHT22;727;48.892;9.544;2023-06-26T09:37:47;33.70;46.50
1468;DHT22;727;48.892;9.544;2023-06-26T09:40:16;33.70;46.40
1468;DHT22;727;48.892;9.544;2023-06-26T09:42:43;33.70;46.40
1468;DHT22;727;48.892;9.544;2023-06-26T09:45:18;33.60;46.70
1468;DHT22;727;48.892;9.544;2023-06-26T09:47:46;33.70;46.20
1468;DHT22;727;48.892;9.544;2023-06-26T09:50:21;33.60;46.60
1468;DHT22;727;48.892;9.544;2023-06-26T09:52:50;33.80;46.90
1468;DHT22;727;48.892;9.544;2023-06-26T09:55:19;33.80;46.80
1468;DHT22;727;48.892;9.544;2023-06-26T09:57:48;33.80;46.10
1468;DHT22;727;48.892;9.544;2023-06-26T10:00:16;33.90;46.30
1468;DHT22;727;48.892;9.544;2023-06-26T10:02:43;33.80;46.10
1468;DHT22;727;48.892;9.544;2023-06-26T10:05:10;33.90;46.60
1468;DHT22;727;48.892;9.544;2023-06-26T10:07:38;34.20;46.40
1468;DHT22;727;48.892;9.544;2023-06-26T10:10:07;34.40;45.60
1468;DHT22;727;48.892;9.544;2023-06-26T10:12:36;34.40;46.10
1468;DHT22;727;48.892;9.544;2023-06-26T10:15:03;34.30;45.80
1468;DHT22;727;48.892;9.544;2023-06-26T10:17:34;34.40;45.50
1468;DHT22;727;48.892;9.544;2023-06-26T10:20:03;34.60;45.80
1468;DHT22;727;48.892;9.544;2023-06-26T10:22:37;34.60;45.90
1468;DHT22;727;48.892;9.544;2023-06-26T10:25:07;34.50;45.70
1468;DHT22;727;48.892;9.544;2023-06-26T10:27:40;34.40;46.50
1468;DHT22;727;48.892;9.544;2023-06-26T10:30:12;34.40;46.80
1468;DHT22;727;48.892;9.544;2023-06-26T10:32:40;34.70;46.30
1468;DHT22;727;48.892;9.544;2023-06-26T10:35:07;34.60;45.10
1468;DHT22;727;48.892;9.544;2023-06-26T10:37:41;34.60;45.90
1468;DHT22;727;48.892;9.544;2023-06-26T10:40:08;34.90;45.20
1468;DHT22;727;48.892;9.544;2023-06-26T10:42:38;34.80;45.30
1468;DHT22;727;48.892;9.544;2023-06-26T10:45:14;34.90;45.30
1468;DHT22;727;48.892;9.544;2023-06-26T10:47:41;34.90;45.50
1468;DHT22;727;48.892;9.544;2023-06-26T10:50:19;34.80;45.50
1468;DHT22;727;48.892;9.544;2023-06-26T10:52:46;34.90;45.40
1468;DHT22;727;48.892;9.544;2023-06-26T10:55:33;35.30;45.70
1468;DHT22;727;48.892;9.544;2023-06-26T10:58:01;35.30;44.50
1468;DHT22;727;48.892;9.544;2023-06-26T11:00:28;35.20;44.80
1468;DHT22;727;48.892;9.544;2023-06-26T11:02:55;34.90;44.90
1468;DHT22;727;48.892;9.544;2023-06-26T11:05:27;34.90;45.10
1468;DHT22;727;48.892;9.544;2023-06-26T11:08:04;34.80;45.30
1468;DHT22;727;48.892;9.544;2023-06-26T11:10:50;34.90;45.20
1468;DHT22;727;48.892;9.544;2023-06-26T11:13:19;35.10;44.50
1468;DHT22;727;48.892;9.544;2023-06-26T11:15:47;34.50;44.60
1468;DHT22;727;48.892;9.544;2023-06-26T11:18:14;34.30;45.50
1468;DHT22;727;48.892;9.544;2023-06-26T11:20:41;34.60;45.90
1468;DHT22;727;48.892;9.544;2023-06-26T11:23:08;34.90;45.40
1468;DHT22;727;48.892;9.544;2023-06-26T11:25:36;34.90;44.90
1468;DHT22;727;48.892;9.544;2023-06-26T11:28:03;34.90;45.30
1468;DHT22;727;48.892;9.544;2023-06-26T11:30:32;34.70;46.00
1468;DHT22;727;48.892;9.544;2023-06-26T11:33:03;34.60;46.10
1468;DHT22;727;48.892;9.544;2023-06-26T11:35:30;34.50;46.40
1468;DHT22;727;48.892;9.544;2023-06-26T11:37:58;34.40;46.50
1468;DHT22;727;48.892;9.544;2023-06-26T11:40:29;34.10;47.00
1468;DHT22;727;48.892;9.544;2023-06-26T11:42:58;34.20;47.60
1468;DHT22;727;48.892;9.544;2023-06-26T11:45:27;34.30;47.50
1468;DHT22;727;48.892;9.544;2023-06-26T11:47:57;34.30;48.00
1468;DHT22;727;48.892;9.544;2023-06-26T11:50:27;34.20;48.40
1468;DHT22;727;48.892;9.544;2023-06-26T11:52:55;33.90;48.60
1468;DHT22;727;48.892;9.544;2023-06-26T11:55:39;33.40;49.30
1468;DHT22;727;48.892;9.544;2023-06-26T11:58:07;32.90;50.00
1468;DHT22;727;48.892;9.544;2023-06-26T12:00:34;32.70;50.60
1468;DHT22;727;48.892;9.544;2023-06-26T12:03:02;32.50;51.50
1468;DHT22;727;48.892;9.544;2023-06-26T12:05:29;32.50;52.00
1468;DHT22;727;48.892;9.544;2023-06-26T12:07:56;32.80;52.10
1468;DHT22;727;48.892;9.544;2023-06-26T12:10:25;33.20;51.60
1468;DHT22;727;48.892;9.544;2023-06-26T12:12:52;33.50;51.00
1468;DHT22;727;48.892;9.544;2023-06-26T12:15:22;33.60;50.90
1468;DHT22;727;48.892;9.544;2023-06-26T12:17:48;33.30;51.10
1468;DHT22;727;48.892;9.544;2023-06-26T12:20:21;33.20;51.50
1468;DHT22;727;48.892;9.544;2023-06-26T12:22:49;33.30;51.10
1468;DHT22;727;48.892;9.544;2023-06-26T12:25:22;33.10;51.60
1468;DHT22;727;48.892;9.544;2023-06-26T12:27:50;32.60;52.50
1468;DHT22;727;48.892;9.544;2023-06-26T12:30:16;32.90;53.60
1468;DHT22;727;48.892;9.544;2023-06-26T12:32:46;33.20;52.70
1468;DHT22;727;48.892;9.544;2023-06-26T12:35:14;33.80;51.70
1468;DHT22;727;48.892;9.544;2023-06-26T12:37:43;34.00;51.40
1468;DHT22;727;48.892;9.544;2023-06-26T12:40:17;33.80;51.40
1468;DHT22;727;48.892;9.544;2023-06-26T12:42:45;33.80;51.70
1468;DHT22;727;48.892;9.544;2023-06-26T12:45:13;33.80;51.40
1468;DHT22;727;48.892;9.544;2023-06-26T12:47:40;33.70;52.10
1468;DHT22;727;48.892;9.544;2023-06-26T12:50:08;33.70;52.10
1468;DHT22;727;48.892;9.544;2023-06-26T12:52:35;33.90;51.90
1468;DHT22;727;48.892;9.544;2023-06-26T12:55:05;33.80;52.20
1468;DHT22;727;48.892;9.544;2023-06-26T12:57:37;33.80;51.40
1468;DHT22;727;48.892;9.544;2023-06-26T13:00:04;33.60;51.60
1468;DHT22;727;48.892;9.544;2023-06-26T13:02:31;33.70;51.30
1468;DHT22;727;48.892;9.544;2023-06-26T13:04:58;34.00;52.10
1468;DHT22;727;48.892;9.544;2023-06-26T13:07:25;34.00;51.10
1468;DHT22;727;48.892;9.544;2023-06-26T13:09:52;33.20;52.50
1468;DHT22;727;48.892;9.544;2023-06-26T13:12:22;33.00;53.20
1468;DHT22;727;48.892;9.544;2023-06-26T13:14:49;33.20;52.90
1468;DHT22;727;48.892;9.544;2023-06-26T13:17:18;32.90;52.50
1468;DHT22;727;48.892;9.544;2023-06-26T13:19:45;32.80;52.90
1468;DHT22;727;48.892;9.544;2023-06-26T13:22:12;32.70;53.20
1468;DHT22;727;48.892;9.544;2023-06-26T13:24:40;32.70;53.50
1468;DHT22;727;48.892;9.544;2023-06-26T13:27:07;32.90;53.20
1468;DHT22;727;48.892;9.544;2023-06-26T13:29:35;33.10;52.70
1468;DHT22;727;48.892;9.544;2023-06-26T13:32:02;33.20;52.50
1468;DHT22;727;48.892;9.544;2023-06-26T13:34:29;33.20;52.50
1468;DHT22;727;48.892;9.544;2023-06-26T13:36:56;33.20;52.50
1468;DHT22;727;48.892;9.544;2023-06-26T13:39:25;32.90;52.80
1468;DHT22;727;48.892;9.544;2023-06-26T13:41:52;32.80;52.80
1468;DHT22;727;48.892;9.544;2023-06-26T13:44:19;32.50;52.70
1468;DHT22;727;48.892;9.544;2023-06-26T13:46:47;32.30;53.40
1468;DHT22;727;48.892;9.544;2023-06-26T13:49:14;32.20;52.80
1468;DHT22;727;48.892;9.544;2023-06-26T13:51:41;32.10;53.20
1468;DHT22;727;48.892;9.544;2023-06-26T13:54:12;32.20;52.00
1468;DHT22;727;48.892;9.544;2023-06-26T13:56:39;31.90;51.60
1468;DHT22;727;48.892;9.544;2023-06-26T13:59:06;31.80;51.80
1468;DHT22;727;48.892;9.544;2023-06-26T14:01:32;31.80;51.10
1468;DHT22;727;48.892;9.544;2023-06-26T14:04:01;31.60;51.50
1468;DHT22;727;48.892;9.544;2023-06-26T14:06:28;31.70;51.70
1468;DHT22;727;48.892;9.544;2023-06-26T14:08:55;31.70;51.50
1468;DHT22;727;48.892;9.544;2023-06-26T14:11:23;31.70;51.10
1468;DHT22;727;48.892;9.544;2023-06-26T14:13:51;31.70;50.30
1468;DHT22;727;48.892;9.544;2023-06-26T14:16:17;31.80;49.70
1468;DHT22;727;48.892;9.544;2023-06-26T14:18:46;32.00;49.90
1468;DHT22;727;48.892;9.544;2023-06-26T14:21:15;32.00;50.70
1468;DHT22;727;48.892;9.544;2023-06-26T14:23:42;32.30;50.50
1468;DHT22;727;48.892;9.544;2023-06-26T14:26:09;32.30;49.40
1468;DHT22;727;48.892;9.544;2023-06-26T14:28:37;32.30;48.60
1468;DHT22;727;48.892;9.544;2023-06-26T14:31:04;32.00;48.90
1468;DHT22;727;48.892;9.544;2023-06-26T14:33:32;31.90;48.80
1468;DHT22;727;48.892;9.544;2023-06-26T14:35:58;32.00;48.90
1468;DHT22;727;48.892;9.544;2023-06-26T14:38:28;32.40;48.60
1468;DHT22;727;48.892;9.544;2023-06-26T14:40:55;32.80;48.00
1468;DHT22;727;48.892;9.544;2023-06-26T14:43:22;32.70;47.60
1468;DHT22;727;48.892;9.544;2023-06-26T14:45:52;32.50;47.80
1468;DHT22;727;48.892;9.544;2023-06-26T14:48:19;32.50;47.80
1468;DHT22;727;48.892;9.544;2023-06-26T14:50:46;32.60;47.90
1468;DHT22;727;48.892;9.544;2023-06-26T14:53:13;32.50;46.90
1468;DHT22;727;48.892;9.544;2023-06-26T14:55:41;32.10;46.70
1468;DHT22;727;48.892;9.544;2023-06-26T14:58:08;31.80;47.10
1468;DHT22;727;48.892;9.544;2023-06-26T15:00:35;31.70;47.90
1468;DHT22;727;48.892;9.544;2023-06-26T15:03:01;31.40;48.30
1468;DHT22;727;48.892;9.544;2023-06-26T15:05:28;31.20;48.60
1468;DHT22;727;48.892;9.544;2023-06-26T15:07:55;31.10;48.30
1468;DHT22;727;48.892;9.544;2023-06-26T15:10:22;31.20;48.20
1468;DHT22;727;48.892;9.544;2023-06-26T15:12:50;31.30;48.00
1468;DHT22;727;48.892;9.544;2023-06-26T15:15:16;31.20;48.50
1468;DHT22;727;48.892;9.544;2023-06-26T15:17:44;31.30;48.80
1468;DHT22;727;48.892;9.544;2023-06-26T15:20:11;31.30;48.50
1468;DHT22;727;48.892;9.544;2023-06-26T15:22:37;31.30;48.80
1468;DHT22;727;48.892;9.544;2023-06-26T15:25:07;31.30;49.00
1468;DHT22;727;48.892;9.544;2023-06-26T15:27:33;31.30;49.20
1468;DHT22;727;48.892;9.544;2023-06-26T15:30:02;31.10;49.00
1468;DHT22;727;48.892;9.544;2023-06-26T15:32:31;31.00;49.00
1468;DHT22;727;48.892;9.544;2023-06-26T15:34:59;31.00;49.20
1468;DHT22;727;48.892;9.544;2023-06-26T15:37:26;30.70;49.80
1468;DHT22;727;48.892;9.544;2023-06-26T15:39:53;30.70;50.00
1468;DHT22;727;48.892;9.544;2023-06-26T15:42:20;30.60;50.40
1468;DHT22;727;48.892;9.544;2023-06-26T15:44:47;30.60;50.40
1468;DHT22;727;48.892;9.544;2023-06-26T15:47:15;30.50;50.60
1468;DHT22;727;48.892;9.544;2023-06-26T15:49:42;30.50;50.70
1468;DHT22;727;48.892;9.544;2023-06-26T15:52:10;30.40;50.00
1468;DHT22;727;48.892;9.544;2023-06-26T15:54:37;30.10;51.00
1468;DHT22;727;48.892;9.544;2023-06-26T15:57:04;29.90;51.10
1468;DHT22;727;48.892;9.544;2023-06-26T15:59:31;29.70;51.10
1468;DHT22;727;48.892;9.544;2023-06-26T16:01:59;29.50;51.60
1468;DHT22;727;48.892;9.544;2023-06-26T16:04:27;29.20;52.50
1468;DHT22;727;48.892;9.544;2023-06-26T16:06:57;29.20;52.50
1468;DHT22;727;48.892;9.544;2023-06-26T16:09:24;29.00;52.70
1468;DHT22;727;48.892;9.544;2023-06-26T16:11:52;28.90;53.40
1468;DHT22;727;48.892;9.544;2023-06-26T16:14:19;28.90;53.30
1468;DHT22;727;48.892;9.544;2023-06-26T16:16:46;28.70;53.70
1468;DHT22;727;48.892;9.544;2023-06-26T16:19:13;28.80;53.90
1468;DHT22;727;48.892;9.544;2023-06-26T16:21:42;28.80;53.90